Flight Briefing for CPX365

Departure Arrival
Chicago/Rockford International Airport (KRFD)
Click to view FAA NOTAMS
Stockton Metropolitan Airport (KSCK)
Click to view FAA NOTAMS
Departure Time Arrival Time
Aircraft Distance
B767-300BDSF 1492.27nm
Departure METAR Arrival METAR
KRFD 151954Z 29012KT 10SM SCT250 M09/M15 A3001 RMK AO2 SLP177 T10941150 KSCK 151955Z AUTO 23011KT 10SM CLR 12/04 A3000 RMK AO2 SLP159 T01170044
Suggested Route





View recent IFR Routes data
Notes



Charts and Procedures

Charts for KRFD
No chart available
Charts for KSCK
No chart available

Ventusky Weather